Terminal Aerodrome Forecast
Issued by NWS

Home | Current Version | Previous Version | Text Only | Print | Product List | Glossary On
Versions: 1 2 3 4 5 6 7 8 9 10 11 12 13 14
000
FTUS44 KOUN 161120
TAFLAW
TAF
KLAW 161120Z 1612/1712 15010KT P6SM SCT250
     FM161500 18020G29KT P6SM SCT250
     FM170100 13011KT P6SM SCT120 BKN250=

USA.gov is the U.S. government's official web portal to all federal, state and local government web resources and services.